Time;durP1;ratioP1;P1;durP2;ratioP2;P2;SDS_P1;SDS_P2;PMS_P1;PMS_P2;Temp;Humidity;BMP_temperature;BMP_pressure;BME280_temperature;BME280_humidity;BME280_pressure;Samples;Min_cycle;Max_cycle;Signal;HPM_P1;HPM_P2
2022/10/16 00:00:46;;;;;;;7.30;6.60;;;;;;;;;;5076805;28;20483;-73
2022/10/16 00:03:12;;;;;;;9.25;6.60;;;;;;;;;;5076796;28;20515;-73
2022/10/16 00:05:39;;;;;;;9.82;6.70;;;;;;;;;;5076343;28;20056;-73
2022/10/16 00:08:05;;;;;;;7.10;6.40;;;;;;;;;;5076452;28;20028;-73
2022/10/16 00:10:32;;;;;;;8.18;6.57;;;;;;;;;;5076373;28;20044;-72
2022/10/16 00:12:58;;;;;;;10.98;6.38;;;;;;;;;;5076249;28;20119;-73
2022/10/16 00:15:24;;;;;;;12.07;6.97;;;;;;;;;;5076241;28;20048;-73
2022/10/16 00:17:50;;;;;;;7.95;6.63;;;;;;;;;;5075785;28;20123;-73
2022/10/16 00:20:16;;;;;;;10.93;6.50;;;;;;;;;;5075852;28;20483;-73
2022/10/16 00:22:42;;;;;;;8.65;6.93;;;;;;;;;;5076696;28;20044;-73
2022/10/16 00:25:08;;;;;;;7.93;6.32;;;;;;;;;;5076006;28;20060;-73
2022/10/16 00:27:35;;;;;;;7.68;6.13;;;;;;;;;;5075964;28;20067;-72
2022/10/16 00:30:01;;;;;;;9.88;7.03;;;;;;;;;;5075518;28;20067;-73
2022/10/16 00:32:27;;;;;;;7.93;7.13;;;;;;;;;;5076021;28;20064;-73
2022/10/16 00:34:54;;;;;;;11.05;7.20;;;;;;;;;;5075655;28;20048;-73
2022/10/16 00:37:20;;;;;;;8.50;6.68;;;;;;;;;;5075726;28;20170;-73
2022/10/16 00:39:47;;;;;;;9.55;7.07;;;;;;;;;;5075740;28;20040;-73
2022/10/16 00:42:17;;;;;;;8.80;6.93;;;;;;;;;;5075717;28;20106;-73
2022/10/16 00:44:45;;;;;;;7.75;6.95;;;;;;;;;;5075228;28;20033;-73
2022/10/16 00:47:14;;;;;;;8.75;6.70;;;;;;;;;;5075801;28;20117;-73
2022/10/16 00:49:40;;;;;;;9.70;7.25;;;;;;;;;;5075195;28;20060;-72
2022/10/16 00:52:06;;;;;;;10.32;6.78;;;;;;;;;;5075500;28;20036;-73
2022/10/16 00:54:33;;;;;;;11.10;7.00;;;;;;;;;;5075597;28;20044;-73
2022/10/16 00:57:01;;;;;;;7.75;6.32;;;;;;;;;;5075139;28;20468;-73
2022/10/16 00:59:28;;;;;;;11.43;6.53;;;;;;;;;;5075125;28;20056;-73
2022/10/16 01:01:55;;;;;;;9.50;7.20;;;;;;;;;;5075579;28;20044;-73
2022/10/16 01:04:21;;;;;;;11.35;7.18;;;;;;;;;;5075292;28;20525;-72
2022/10/16 01:06:50;;;;;;;9.10;6.80;;;;;;;;;;5075147;28;20105;-73
2022/10/16 01:09:22;;;;;;;10.43;7.28;;;;;;;;;;5075154;28;20041;-73
2022/10/16 01:12:04;;;;;;;8.88;6.72;;;;;;;;;;5075135;28;20041;-73
2022/10/16 01:14:30;;;;;;;8.27;7.07;;;;;;;;;;5075099;28;20432;-72
2022/10/16 01:17:04;;;;;;;11.02;6.63;;;;;;;;;;5074738;28;20041;-73
2022/10/16 01:19:33;;;;;;;8.70;6.90;;;;;;;;;;5074715;28;20044;-73
2022/10/16 01:22:00;;;;;;;9.65;7.20;;;;;;;;;;5074952;28;20131;-73
2022/10/16 01:24:39;;;;;;;8.95;7.45;;;;;;;;;;5075062;28;20075;-73
2022/10/16 01:27:05;;;;;;;11.95;6.57;;;;;;;;;;5074592;28;20051;-73
2022/10/16 01:29:38;;;;;;;14.00;8.43;;;;;;;;;;5073707;28;20037;-73
2022/10/16 01:32:24;;;;;;;9.60;7.13;;;;;;;;;;5075092;28;20557;-73
2022/10/16 01:34:54;;;;;;;10.02;7.47;;;;;;;;;;5043670;28;20048;-72
2022/10/16 01:37:30;;;;;;;12.60;7.78;;;;;;;;;;5074479;28;20040;-73
2022/10/16 01:39:58;;;;;;;14.25;7.78;;;;;;;;;;5074161;28;20398;-73
2022/10/16 01:42:29;;;;;;;13.93;8.73;;;;;;;;;;5074990;28;20048;-73
2022/10/16 01:44:56;;;;;;;14.73;8.75;;;;;;;;;;5073949;28;20048;-73
2022/10/16 01:47:24;;;;;;;12.48;7.60;;;;;;;;;;5074908;28;20076;-73
2022/10/16 01:49:52;;;;;;;11.15;8.70;;;;;;;;;;5074626;28;20040;-73
2022/10/16 01:52:20;;;;;;;14.18;7.43;;;;;;;;;;5074921;28;20044;-73
2022/10/16 01:54:47;;;;;;;10.77;7.65;;;;;;;;;;5074514;28;20062;-73
2022/10/16 01:57:14;;;;;;;14.80;8.52;;;;;;;;;;5074790;28;20047;-73
2022/10/16 01:59:44;;;;;;;12.48;9.32;;;;;;;;;;5074305;28;20086;-73
2022/10/16 02:02:11;;;;;;;18.13;9.17;;;;;;;;;;5074236;28;20040;-73
2022/10/16 02:04:44;;;;;;;10.90;8.63;;;;;;;;;;5074104;28;20174;-73
2022/10/16 02:07:11;;;;;;;16.40;9.27;;;;;;;;;;5074367;28;20040;-73
2022/10/16 02:09:37;;;;;;;15.45;9.45;;;;;;;;;;5074394;28;20040;-72
2022/10/16 02:12:29;;;;;;;12.90;8.60;;;;;;;;;;5074382;28;20040;-73
2022/10/16 02:14:56;;;;;;;13.85;9.40;;;;;;;;;;5071140;28;20044;-72
2022/10/16 02:17:22;;;;;;;16.00;10.45;;;;;;;;;;5074069;28;20106;-73
2022/10/16 02:19:50;;;;;;;16.17;9.90;;;;;;;;;;5074225;28;20514;-73
2022/10/16 02:22:17;;;;;;;19.73;10.02;;;;;;;;;;5074267;28;20048;-73
2022/10/16 02:24:51;;;;;;;19.85;9.95;;;;;;;;;;5074180;28;20087;-73
2022/10/16 02:27:19;;;;;;;21.08;10.88;;;;;;;;;;5075083;28;20131;-73
2022/10/16 02:29:50;;;;;;;15.10;10.63;;;;;;;;;;5074006;28;20063;-73
2022/10/16 02:32:17;;;;;;;15.45;10.20;;;;;;;;;;5074520;28;20074;-73
2022/10/16 02:34:44;;;;;;;20.88;11.90;;;;;;;;;;5074284;28;20044;-73
2022/10/16 02:37:11;;;;;;;17.13;11.73;;;;;;;;;;5074411;28;20112;-73
2022/10/16 02:39:37;;;;;;;18.55;10.82;;;;;;;;;;5074671;28;20068;-73
2022/10/16 02:42:03;;;;;;;19.38;10.90;;;;;;;;;;5078324;28;20076;-73
2022/10/16 02:44:29;;;;;;;20.33;12.63;;;;;;;;;;5078311;28;20484;-73
2022/10/16 02:46:56;;;;;;;18.92;11.48;;;;;;;;;;5078343;28;20048;-72
2022/10/16 02:49:22;;;;;;;19.10;11.95;;;;;;;;;;5077870;28;20576;-73
2022/10/16 02:51:48;;;;;;;18.30;11.88;;;;;;;;;;5078357;28;20121;-73
2022/10/16 02:54:14;;;;;;;23.02;13.25;;;;;;;;;;5077811;28;20051;-73
2022/10/16 02:56:40;;;;;;;21.70;14.13;;;;;;;;;;5078008;28;20125;-73
2022/10/16 02:59:06;;;;;;;18.15;12.63;;;;;;;;;;5077771;28;20132;-73
2022/10/16 03:01:32;;;;;;;20.98;13.30;;;;;;;;;;5077603;28;20032;-73
2022/10/16 03:03:58;;;;;;;20.83;12.57;;;;;;;;;;5078274;28;20052;-73
2022/10/16 03:06:24;;;;;;;21.42;13.38;;;;;;;;;;5077738;28;20052;-73
2022/10/16 03:08:50;;;;;;;18.13;13.40;;;;;;;;;;5077841;28;20041;-73
2022/10/16 03:11:17;;;;;;;19.95;13.00;;;;;;;;;;5077730;28;20068;-73
2022/10/16 03:13:43;;;;;;;18.83;12.70;;;;;;;;;;5077944;28;20048;-73
2022/10/16 03:16:09;;;;;;;22.65;14.00;;;;;;;;;;5077642;28;20079;-72
2022/10/16 03:18:35;;;;;;;21.27;14.30;;;;;;;;;;5077543;28;20040;-73
2022/10/16 03:21:01;;;;;;;22.60;14.90;;;;;;;;;;5078123;28;20044;-72
2022/10/16 03:23:28;;;;;;;24.00;16.10;;;;;;;;;;5077455;28;20075;-72
2022/10/16 03:25:54;;;;;;;20.73;15.05;;;;;;;;;;5077384;28;20506;-73
2022/10/16 03:28:20;;;;;;;31.27;15.70;;;;;;;;;;5076900;28;20029;-73
2022/10/16 03:30:47;;;;;;;23.25;14.60;;;;;;;;;;5077110;28;20537;-73
2022/10/16 03:33:13;;;;;;;29.92;16.98;;;;;;;;;;5077570;28;20060;-73
2022/10/16 03:35:39;;;;;;;23.88;16.65;;;;;;;;;;5076720;28;20094;-73
2022/10/16 03:38:05;;;;;;;24.00;15.45;;;;;;;;;;5076990;28;20041;-73
2022/10/16 03:40:34;;;;;;;29.65;16.55;;;;;;;;;;5076766;28;20094;-73
2022/10/16 03:43:01;;;;;;;28.85;17.95;;;;;;;;;;5076800;28;20044;-73
2022/10/16 03:45:27;;;;;;;30.10;18.83;;;;;;;;;;5076720;28;20040;-73
2022/10/16 03:47:53;;;;;;;22.52;17.75;;;;;;;;;;5076745;28;20079;-73
2022/10/16 03:50:19;;;;;;;25.90;16.73;;;;;;;;;;5076764;28;20486;-73
2022/10/16 03:52:45;;;;;;;24.42;18.08;;;;;;;;;;5076225;28;20136;-73
2022/10/16 03:55:11;;;;;;;25.50;19.23;;;;;;;;;;5076387;28;20047;-73
2022/10/16 03:57:38;;;;;;;27.35;17.05;;;;;;;;;;5076738;28;20051;-73
2022/10/16 04:00:04;;;;;;;27.55;19.45;;;;;;;;;;5076079;28;20395;-73
2022/10/16 04:02:30;;;;;;;25.88;18.55;;;;;;;;;;5076855;28;20471;-73
2022/10/16 04:04:56;;;;;;;28.52;19.63;;;;;;;;;;5076372;28;20037;-73
2022/10/16 04:07:22;;;;;;;29.40;18.42;;;;;;;;;;5076135;28;20576;-73
2022/10/16 04:09:48;;;;;;;23.38;17.20;;;;;;;;;;5076371;28;20036;-73
2022/10/16 04:12:14;;;;;;;29.55;19.67;;;;;;;;;;5076373;28;20067;-73
2022/10/16 04:14:40;;;;;;;28.83;19.50;;;;;;;;;;5076002;28;20036;-72
2022/10/16 04:17:07;;;;;;;32.30;20.63;;;;;;;;;;5076223;28;20041;-72
2022/10/16 04:19:33;;;;;;;23.42;18.55;;;;;;;;;;5076071;28;20387;-73
2022/10/16 04:21:59;;;;;;;25.52;19.50;;;;;;;;;;5076401;28;20044;-73
2022/10/16 04:24:25;;;;;;;27.27;18.73;;;;;;;;;;5076141;28;20089;-73
2022/10/16 04:26:51;;;;;;;27.35;19.45;;;;;;;;;;5075665;28;20564;-73
2022/10/16 04:29:17;;;;;;;28.27;17.92;;;;;;;;;;5075896;28;20047;-73
2022/10/16 04:31:43;;;;;;;30.98;19.45;;;;;;;;;;5075617;28;20368;-73
2022/10/16 04:34:09;;;;;;;25.77;17.65;;;;;;;;;;5076280;28;20064;-73
2022/10/16 04:36:35;;;;;;;28.73;19.73;;;;;;;;;;5076115;28;20040;-72
2022/10/16 04:39:01;;;;;;;31.73;20.10;;;;;;;;;;5076052;28;20120;-73
2022/10/16 04:41:28;;;;;;;29.20;21.30;;;;;;;;;;5075996;28;20040;-73
2022/10/16 04:43:54;;;;;;;29.15;19.92;;;;;;;;;;5075569;28;20518;-72
2022/10/16 04:46:20;;;;;;;26.73;20.88;;;;;;;;;;5075860;28;20044;-73
2022/10/16 04:48:46;;;;;;;34.80;21.10;;;;;;;;;;5075635;28;20044;-73
2022/10/16 04:51:12;;;;;;;30.65;20.92;;;;;;;;;;5076633;28;20051;-73
2022/10/16 04:53:38;;;;;;;27.50;20.75;;;;;;;;;;5076005;28;20115;-73
2022/10/16 04:56:05;;;;;;;27.50;20.30;;;;;;;;;;5075744;28;20054;-73
2022/10/16 04:58:31;;;;;;;32.17;19.35;;;;;;;;;;5075703;28;20047;-73
2022/10/16 05:00:57;;;;;;;31.65;20.70;;;;;;;;;;5075345;28;20082;-73
2022/10/16 05:03:23;;;;;;;29.50;21.63;;;;;;;;;;5074345;28;20403;-72
2022/10/16 05:05:49;;;;;;;27.73;21.83;;;;;;;;;;5075463;28;20048;-73
2022/10/16 05:08:16;;;;;;;25.10;20.73;;;;;;;;;;5075726;28;20039;-73
2022/10/16 05:10:43;;;;;;;26.58;18.98;;;;;;;;;;5075138;28;20097;-73
2022/10/16 05:13:09;;;;;;;27.08;21.75;;;;;;;;;;5075397;28;20045;-73
2022/10/16 05:15:35;;;;;;;30.15;21.17;;;;;;;;;;5075322;28;20045;-73
2022/10/16 05:18:02;;;;;;;33.08;21.40;;;;;;;;;;5074758;28;20538;-72
2022/10/16 05:20:28;;;;;;;28.27;20.80;;;;;;;;;;5074634;28;20034;-73
2022/10/16 05:22:54;;;;;;;29.73;20.00;;;;;;;;;;5074404;28;20044;-73
2022/10/16 05:25:20;;;;;;;34.08;22.63;;;;;;;;;;5074530;28;20040;-73
2022/10/16 05:27:50;;;;;;;32.47;20.00;;;;;;;;;;5074699;28;20530;-73
2022/10/16 05:30:16;;;;;;;29.15;20.50;;;;;;;;;;5074813;28;20040;-72
2022/10/16 05:32:46;;;;;;;25.75;20.65;;;;;;;;;;5075136;28;20052;-73
2022/10/16 05:35:12;;;;;;;25.70;20.95;;;;;;;;;;5074697;28;20515;-73
2022/10/16 05:37:38;;;;;;;29.77;19.73;;;;;;;;;;5075059;28;20045;-72
2022/10/16 05:40:05;;;;;;;29.63;21.17;;;;;;;;;;5074705;28;20533;-73
2022/10/16 05:42:31;;;;;;;26.40;20.15;;;;;;;;;;5074984;28;20115;-73
2022/10/16 05:44:57;;;;;;;30.27;20.10;;;;;;;;;;5074404;28;20534;-73
2022/10/16 05:47:23;;;;;;;28.02;21.90;;;;;;;;;;5074911;28;20119;-73
2022/10/16 05:49:49;;;;;;;32.05;20.83;;;;;;;;;;5074737;28;20479;-73
2022/10/16 05:52:15;;;;;;;28.77;22.02;;;;;;;;;;5074624;28;20106;-73
2022/10/16 05:54:41;;;;;;;31.48;21.40;;;;;;;;;;5074240;28;20157;-73
2022/10/16 05:57:08;;;;;;;32.10;21.98;;;;;;;;;;5074533;28;20032;-73
2022/10/16 05:59:34;;;;;;;32.78;22.88;;;;;;;;;;5074041;28;20521;-73
2022/10/16 06:02:00;;;;;;;33.60;23.30;;;;;;;;;;5074731;28;20119;-73
2022/10/16 06:04:26;;;;;;;36.42;22.77;;;;;;;;;;5074726;28;20094;-73
2022/10/16 06:06:52;;;;;;;32.05;21.60;;;;;;;;;;5074602;28;20109;-73
2022/10/16 06:09:18;;;;;;;33.08;23.02;;;;;;;;;;5074090;28;20040;-73
2022/10/16 06:11:44;;;;;;;27.77;20.65;;;;;;;;;;5074365;28;20040;-72
2022/10/16 06:14:10;;;;;;;27.83;21.08;;;;;;;;;;5074494;28;20048;-73
2022/10/16 06:16:37;;;;;;;30.70;21.20;;;;;;;;;;5078162;28;20037;-73
2022/10/16 06:19:06;;;;;;;27.85;20.98;;;;;;;;;;5078649;28;20491;-73
2022/10/16 06:21:32;;;;;;;29.45;21.80;;;;;;;;;;5078436;28;20040;-73
2022/10/16 06:23:58;;;;;;;27.80;20.15;;;;;;;;;;5078633;28;20119;-73
2022/10/16 06:26:26;;;;;;;31.48;21.77;;;;;;;;;;5078320;28;20058;-73
2022/10/16 06:28:52;;;;;;;27.30;21.23;;;;;;;;;;5078209;28;20044;-73
2022/10/16 06:31:18;;;;;;;30.73;20.60;;;;;;;;;;5077976;28;20036;-73
2022/10/16 06:33:46;;;;;;;27.30;20.42;;;;;;;;;;5078086;28;20067;-73
2022/10/16 06:36:14;;;;;;;24.20;18.75;;;;;;;;;;5077914;28;20044;-73
2022/10/16 06:38:40;;;;;;;27.55;19.30;;;;;;;;;;5077721;28;20059;-72
2022/10/16 06:41:07;;;;;;;29.40;19.63;;;;;;;;;;5078141;28;20036;-73
2022/10/16 06:43:36;;;;;;;27.23;19.05;;;;;;;;;;5077532;28;20123;-73
2022/10/16 06:46:03;;;;;;;22.67;18.80;;;;;;;;;;5077845;28;20044;-73
2022/10/16 06:48:30;;;;;;;21.80;17.90;;;;;;;;;;5077602;28;20051;-73
2022/10/16 06:51:00;;;;;;;27.40;18.38;;;;;;;;;;5078117;28;20039;-73
2022/10/16 06:53:27;;;;;;;24.90;18.00;;;;;;;;;;5078104;28;20048;-73
2022/10/16 06:55:53;;;;;;;30.00;16.70;;;;;;;;;;5077712;28;20045;-73
2022/10/16 06:58:19;;;;;;;20.05;16.17;;;;;;;;;;5077260;28;20113;-72
2022/10/16 07:00:46;;;;;;;25.48;19.33;;;;;;;;;;5077586;28;20128;-73
2022/10/16 07:03:12;;;;;;;19.20;16.75;;;;;;;;;;5078192;28;20063;-73
2022/10/16 07:05:42;;;;;;;20.92;15.98;;;;;;;;;;5077206;28;20135;-73
2022/10/16 07:08:08;;;;;;;21.83;16.60;;;;;;;;;;5077490;28;20048;-73
2022/10/16 07:10:35;;;;;;;24.15;15.95;;;;;;;;;;5080004;28;20036;-73
2022/10/16 07:13:01;;;;;;;22.52;15.25;;;;;;;;;;5091489;28;20119;-73
2022/10/16 07:15:27;;;;;;;21.08;14.07;;;;;;;;;;5091014;28;20036;-73
2022/10/16 07:17:54;;;;;;;22.35;14.85;;;;;;;;;;5096536;28;20444;-73
2022/10/16 07:20:20;;;;;;;23.45;15.07;;;;;;;;;;5097043;28;20044;-73
2022/10/16 07:22:46;;;;;;;18.90;13.57;;;;;;;;;;5097572;28;20491;-73
2022/10/16 07:25:12;;;;;;;20.10;13.88;;;;;;;;;;5096644;28;20054;-73
2022/10/16 07:27:39;;;;;;;18.25;13.32;;;;;;;;;;5096721;28;20046;-73
2022/10/16 07:30:05;;;;;;;17.40;13.18;;;;;;;;;;5090442;28;20410;-73
2022/10/16 07:32:32;;;;;;;21.85;13.18;;;;;;;;;;5074694;28;20048;-73
2022/10/16 07:34:58;;;;;;;16.77;11.30;;;;;;;;;;5076829;28;20062;-73
2022/10/16 07:37:24;;;;;;;19.85;12.23;;;;;;;;;;5079138;28;20484;-73
2022/10/16 07:39:50;;;;;;;21.30;12.38;;;;;;;;;;5092372;28;20036;-73
2022/10/16 07:42:16;;;;;;;14.57;11.63;;;;;;;;;;5088851;28;20120;-73
2022/10/16 07:44:42;;;;;;;18.73;11.73;;;;;;;;;;5085538;28;20101;-73
2022/10/16 07:47:08;;;;;;;14.70;10.10;;;;;;;;;;5082135;28;20052;-73
2022/10/16 07:49:35;;;;;;;15.80;10.00;;;;;;;;;;5076928;28;20089;-73
2022/10/16 07:52:01;;;;;;;15.30;9.50;;;;;;;;;;5076138;28;20441;-73
2022/10/16 07:54:27;;;;;;;15.05;9.80;;;;;;;;;;5076525;28;20063;-73
2022/10/16 07:56:53;;;;;;;14.38;9.25;;;;;;;;;;5080106;28;20041;-73
2022/10/16 07:59:19;;;;;;;15.65;9.60;;;;;;;;;;5081881;28;20059;-73
2022/10/16 08:01:45;;;;;;;14.55;8.98;;;;;;;;;;5096796;28;20044;-73
2022/10/16 08:04:11;;;;;;;15.27;8.50;;;;;;;;;;5096876;28;20506;-73
2022/10/16 08:06:39;;;;;;;12.68;8.57;;;;;;;;;;5096598;28;20052;-73
2022/10/16 08:09:05;;;;;;;14.23;8.25;;;;;;;;;;5096657;28;20117;-73
2022/10/16 08:11:32;;;;;;;11.52;7.60;;;;;;;;;;5096616;28;20066;-73
2022/10/16 08:13:58;;;;;;;11.20;7.47;;;;;;;;;;5096718;28;20036;-73
2022/10/16 08:16:24;;;;;;;10.60;6.70;;;;;;;;;;5095839;28;20040;-73
2022/10/16 08:18:51;;;;;;;10.32;7.30;;;;;;;;;;5094883;28;20060;-73
2022/10/16 08:21:19;;;;;;;13.70;8.20;;;;;;;;;;5075775;28;20040;-72
2022/10/16 08:23:45;;;;;;;13.88;7.45;;;;;;;;;;5078963;28;20491;-72
2022/10/16 08:26:11;;;;;;;14.73;7.50;;;;;;;;;;5077744;28;20051;-73
2022/10/16 08:28:37;;;;;;;10.38;7.25;;;;;;;;;;5077456;28;20071;-73
2022/10/16 08:31:11;;;;;;;13.48;6.57;;;;;;;;;;5079534;28;20063;-73
2022/10/16 08:33:38;;;;;;;11.00;6.53;;;;;;;;;;5085049;28;20060;-72
2022/10/16 08:36:06;;;;;;;14.90;7.10;;;;;;;;;;5076888;28;20036;-73
2022/10/16 08:38:33;;;;;;;11.60;6.13;;;;;;;;;;5068096;28;20067;-73
2022/10/16 08:41:10;;;;;;;12.70;6.30;;;;;;;;;;5082188;28;20050;-73
2022/10/16 08:43:57;;;;;;;10.75;5.82;;;;;;;;;;5078900;28;20086;-73
2022/10/16 08:46:29;;;;;;;12.90;6.53;;;;;;;;;;5062017;28;20084;-73
2022/10/16 08:48:57;;;;;;;11.80;5.82;;;;;;;;;;5073728;28;20044;-72
2022/10/16 08:51:28;;;;;;;13.18;6.70;;;;;;;;;;5072472;28;20566;-72
2022/10/16 08:53:54;;;;;;;;;;;;;;;;;;5074830;28;20483;-73
2022/10/16 08:56:20;;;;;;;12.27;6.25;;;;;;;;;;5072285;28;19915;-73
2022/10/16 08:58:47;;;;;;;10.70;5.88;;;;;;;;;;5073428;28;20044;-73
2022/10/16 09:01:14;;;;;;;9.38;5.40;;;;;;;;;;5093397;28;20502;-74
2022/10/16 09:04:07;;;;;;;9.05;4.90;;;;;;;;;;5073334;28;20032;-72
2022/10/16 09:06:36;;;;;;;12.32;5.65;;;;;;;;;;5089375;28;20075;-72
2022/10/16 09:09:11;;;;;;;8.32;5.35;;;;;;;;;;5091292;28;20400;-72
2022/10/16 09:11:42;;;;;;;10.57;5.25;;;;;;;;;;5067338;28;20123;-73
2022/10/16 09:14:14;;;;;;;9.40;5.22;;;;;;;;;;5072089;28;20044;-71
2022/10/16 09:16:44;;;;;;;10.07;5.20;;;;;;;;;;5075714;28;20072;-70
2022/10/16 09:19:10;;;;;;;12.23;4.65;;;;;;;;;;5073247;28;20044;-69
2022/10/16 09:21:38;;;;;;;12.57;5.28;;;;;;;;;;5086600;28;20119;-71
2022/10/16 09:24:12;;;;;;;14.52;4.70;;;;;;;;;;5075525;28;20461;-72
2022/10/16 09:26:39;;;;;;;10.15;4.55;;;;;;;;;;5072774;28;20055;-74
2022/10/16 09:29:05;;;;;;;9.80;4.78;;;;;;;;;;5071247;28;20045;-75
2022/10/16 09:31:31;;;;;;;9.20;4.30;;;;;;;;;;5072517;28;20040;-73
2022/10/16 09:34:04;;;;;;;10.85;4.97;;;;;;;;;;5071561;28;20522;-72
2022/10/16 09:36:33;;;;;;;11.05;4.80;;;;;;;;;;5071766;28;20037;-72
2022/10/16 09:39:04;;;;;;;9.73;4.18;;;;;;;;;;5072585;28;20562;-73
2022/10/16 09:41:30;;;;;;;9.50;3.95;;;;;;;;;;5082177;28;20071;-71
2022/10/16 09:43:58;;;;;;;11.30;4.57;;;;;;;;;;5075607;28;20049;-72
2022/10/16 09:46:31;;;;;;;10.60;3.63;;;;;;;;;;5073097;28;20097;-73
2022/10/16 09:48:58;;;;;;;12.02;4.25;;;;;;;;;;5070464;28;20032;-70
2022/10/16 09:51:26;;;;;;;8.07;3.65;;;;;;;;;;5087240;28;20036;-70
2022/10/16 09:54:00;;;;;;;8.38;3.92;;;;;;;;;;5071297;28;20044;-72
2022/10/16 09:56:32;;;;;;;9.93;3.55;;;;;;;;;;5082294;28;20082;-69
2022/10/16 09:59:00;;;;;;;9.88;3.92;;;;;;;;;;5067345;28;20045;-70
2022/10/16 10:01:46;;;;;;;10.15;3.70;;;;;;;;;;5090835;28;20067;-73
2022/10/16 10:04:12;;;;;;;10.60;3.58;;;;;;;;;;5066604;28;20053;-73
2022/10/16 10:06:44;;;;;;;7.65;2.95;;;;;;;;;;5061586;28;20127;-72
2022/10/16 10:09:21;;;;;;;8.10;3.90;;;;;;;;;;5069137;28;20041;-72
2022/10/16 10:12:01;;;;;;;9.65;3.20;;;;;;;;;;5084860;28;20040;-71
2022/10/16 10:14:29;;;;;;;7.68;3.35;;;;;;;;;;5093347;28;20040;-71
2022/10/16 10:17:07;;;;;;;6.43;3.00;;;;;;;;;;5090842;28;20063;-73
2022/10/16 10:19:39;;;;;;;7.18;3.13;;;;;;;;;;5069287;28;20517;-71
2022/10/16 10:22:17;;;;;;;7.90;2.95;;;;;;;;;;5080316;28;20073;-73
2022/10/16 10:24:45;;;;;;;6.85;3.20;;;;;;;;;;5076907;28;20102;-73
2022/10/16 10:27:17;;;;;;;6.28;2.95;;;;;;;;;;5067913;28;20587;-69
2022/10/16 10:29:56;;;;;;;9.68;2.95;;;;;;;;;;5066432;28;20048;-71
2022/10/16 10:32:38;;;;;;;7.80;2.55;;;;;;;;;;5067755;28;20167;-71
2022/10/16 10:35:09;;;;;;;7.75;2.55;;;;;;;;;;5072751;28;20514;-74
2022/10/16 10:37:51;;;;;;;8.43;2.53;;;;;;;;;;5069480;28;20048;-73
2022/10/16 10:40:30;;;;;;;7.32;3.03;;;;;;;;;;5070736;28;20041;-73
2022/10/16 10:43:14;;;;;;;7.60;3.05;;;;;;;;;;5066337;28;20049;-70
2022/10/16 10:45:44;;;;;;;6.18;2.58;;;;;;;;;;5057887;28;20052;-71
2022/10/16 10:48:13;;;;;;;9.93;3.38;;;;;;;;;;5080329;28;20051;-76
2022/10/16 10:50:49;;;;;;;8.93;2.90;;;;;;;;;;5074371;28;20040;-74
2022/10/16 10:53:30;;;;;;;11.30;2.80;;;;;;;;;;5084279;28;20036;-75
2022/10/16 10:56:11;;;;;;;6.45;2.67;;;;;;;;;;5064545;28;20032;-75
2022/10/16 10:58:56;;;;;;;8.07;2.83;;;;;;;;;;5062832;28;20048;-75
2022/10/16 11:01:40;;;;;;;7.53;2.70;;;;;;;;;;5071312;28;20044;-75
2022/10/16 11:04:25;;;;;;;8.32;2.22;;;;;;;;;;5077385;28;20044;-75
2022/10/16 11:06:53;;;;;;;8.95;2.80;;;;;;;;;;5083923;28;20040;-75
2022/10/16 11:09:34;;;;;;;9.95;3.05;;;;;;;;;;5065157;28;20037;-75
2022/10/16 11:12:06;;;;;;;4.82;2.40;;;;;;;;;;5057452;28;20028;-75
2022/10/16 11:14:56;;;;;;;6.28;2.63;;;;;;;;;;5067950;28;20051;-75
2022/10/16 11:17:25;;;;;;;7.45;2.38;;;;;;;;;;5083976;28;20064;-75
2022/10/16 11:20:01;;;;;;;8.88;2.30;;;;;;;;;;5085216;28;20033;-75
2022/10/16 11:22:27;;;;;;;7.82;2.42;;;;;;;;;;5088846;28;20115;-75
2022/10/16 11:25:12;;;;;;;4.82;2.10;;;;;;;;;;5097073;28;20044;-75
2022/10/16 11:27:44;;;;;;;8.63;2.50;;;;;;;;;;5078810;28;20044;-74
2022/10/16 11:30:20;;;;;;;4.20;2.20;;;;;;;;;;5067912;28;20041;-75
2022/10/16 11:32:53;;;;;;;6.85;2.28;;;;;;;;;;5083002;28;20070;-75
2022/10/16 11:35:25;;;;;;;7.88;2.10;;;;;;;;;;5074854;28;20099;-75
2022/10/16 11:37:52;;;;;;;6.05;2.20;;;;;;;;;;5072460;28;20503;-75
2022/10/16 11:40:40;;;;;;;5.72;1.90;;;;;;;;;;5067293;28;20066;-72
2022/10/16 11:43:20;;;;;;;7.03;2.35;;;;;;;;;;5073430;28;20116;-74
2022/10/16 11:45:49;;;;;;;5.28;2.35;;;;;;;;;;5074082;28;20057;-73
2022/10/16 11:48:16;;;;;;;5.70;2.15;;;;;;;;;;5073942;28;20040;-72
2022/10/16 11:51:00;;;;;;;5.13;2.15;;;;;;;;;;5074077;28;20036;-72
2022/10/16 11:53:36;;;;;;;5.95;2.00;;;;;;;;;;5074129;28;20083;-75
2022/10/16 11:56:02;;;;;;;8.45;1.90;;;;;;;;;;5073815;28;20068;-74
2022/10/16 11:58:33;;;;;;;5.82;2.00;;;;;;;;;;5069201;28;20033;-74
2022/10/16 12:01:08;;;;;;;4.97;2.22;;;;;;;;;;5065818;28;20067;-75
2022/10/16 12:03:43;;;;;;;7.35;2.17;;;;;;;;;;5067835;28;20108;-72
2022/10/16 12:06:28;;;;;;;9.05;2.15;;;;;;;;;;5063318;28;20144;-72
2022/10/16 12:08:54;;;;;;;5.78;2.15;;;;;;;;;;5060877;28;20037;-71
2022/10/16 12:11:31;;;;;;;6.03;2.15;;;;;;;;;;5067403;28;20032;-72
2022/10/16 12:14:13;;;;;;;4.65;1.65;;;;;;;;;;5070599;28;20107;-73
2022/10/16 12:16:57;;;;;;;8.48;2.20;;;;;;;;;;5070394;28;20418;-72
2022/10/16 12:19:24;;;;;;;8.98;2.33;;;;;;;;;;5074624;28;20048;-71
2022/10/16 12:21:51;;;;;;;6.68;2.00;;;;;;;;;;5076095;28;20043;-71
2022/10/16 12:24:33;;;;;;;6.25;2.10;;;;;;;;;;5073591;28;20045;-71
2022/10/16 12:27:00;;;;;;;6.03;2.30;;;;;;;;;;5072579;28;20044;-75
2022/10/16 12:29:42;;;;;;;6.72;2.30;;;;;;;;;;5069199;28;20118;-73
2022/10/16 12:32:27;;;;;;;5.65;2.15;;;;;;;;;;5086710;28;20089;-73
2022/10/16 12:34:54;;;;;;;4.97;1.90;;;;;;;;;;5064521;28;20049;-71
2022/10/16 12:37:30;;;;;;;7.38;2.38;;;;;;;;;;5071333;28;20040;-72
2022/10/16 12:39:57;;;;;;;5.05;1.77;;;;;;;;;;5071204;28;20117;-73
2022/10/16 12:42:31;;;;;;;4.88;2.42;;;;;;;;;;5073043;28;20045;-73
2022/10/16 12:44:59;;;;;;;6.82;2.03;;;;;;;;;;5063647;28;20037;-74
2022/10/16 12:47:31;;;;;;;5.18;2.25;;;;;;;;;;5067693;28;20044;-73
2022/10/16 12:49:57;;;;;;;6.03;2.42;;;;;;;;;;5067205;28;20092;-72
2022/10/16 12:52:25;;;;;;;7.63;2.33;;;;;;;;;;5067903;28;20101;-71
2022/10/16 12:54:52;;;;;;;5.30;2.30;;;;;;;;;;5075397;28;20398;-73
2022/10/16 12:57:24;;;;;;;12.32;2.42;;;;;;;;;;5066743;28;20040;-72
2022/10/16 13:00:02;;;;;;;7.93;2.30;;;;;;;;;;5083172;28;20055;-71
2022/10/16 13:02:37;;;;;;;4.75;2.50;;;;;;;;;;5073548;28;20570;-73
2022/10/16 13:05:16;;;;;;;6.53;2.17;;;;;;;;;;5078089;28;20043;-72
2022/10/16 13:07:42;;;;;;;8.13;2.28;;;;;;;;;;5072029;28;20052;-72
2022/10/16 13:10:12;;;;;;;6.10;2.30;;;;;;;;;;5072387;28;20049;-73
2022/10/16 13:12:57;;;;;;;3.10;2.03;;;;;;;;;;5074408;28;20044;-73
2022/10/16 13:15:41;;;;;;;6.15;2.83;;;;;;;;;;5071168;28;20466;-73
2022/10/16 13:18:22;;;;;;;5.60;2.83;;;;;;;;;;5070952;28;20044;-73
2022/10/16 13:20:54;;;;;;;6.20;2.80;;;;;;;;;;5071415;28;20449;-72
2022/10/16 13:23:24;;;;;;;4.13;3.08;;;;;;;;;;5074559;28;20376;-72
2022/10/16 13:25:53;;;;;;;5.65;2.38;;;;;;;;;;5074836;28;20094;-72
2022/10/16 13:28:22;;;;;;;10.07;2.53;;;;;;;;;;5073619;28;20090;-72
2022/10/16 13:30:52;;;;;;;4.35;2.55;;;;;;;;;;5073671;28;20041;-73
2022/10/16 13:33:27;;;;;;;4.75;2.58;;;;;;;;;;5071280;28;20060;-73
2022/10/16 13:35:57;;;;;;;4.55;2.35;;;;;;;;;;5072287;28;20039;-73
2022/10/16 13:38:25;;;;;;;8.63;3.90;;;;;;;;;;5077680;28;20504;-73
2022/10/16 13:41:02;;;;;;;4.75;2.50;;;;;;;;;;5072435;28;20036;-72
2022/10/16 13:43:36;;;;;;;5.82;2.50;;;;;;;;;;5073143;28;20036;-72
2022/10/16 13:46:06;;;;;;;7.40;2.88;;;;;;;;;;5071387;28;20052;-72
2022/10/16 13:48:32;;;;;;;;;;;;;;;;;;5072753;28;20052;-72
2022/10/16 13:51:03;;;;;;;5.95;2.95;;;;;;;;;;5070441;28;19908;-73
2022/10/16 13:53:34;;;;;;;7.22;2.50;;;;;;;;;;5068514;28;20558;-73
2022/10/16 13:56:00;;;;;;;4.05;1.95;;;;;;;;;;5071715;28;20044;-72
2022/10/16 13:58:31;;;;;;;6.32;2.67;;;;;;;;;;5076268;28;20092;-75
2022/10/16 14:00:59;;;;;;;5.57;2.25;;;;;;;;;;5062667;28;20033;-73
2022/10/16 14:03:27;;;;;;;3.78;2.30;;;;;;;;;;5072078;28;20131;-75
2022/10/16 14:05:55;;;;;;;5.95;2.05;;;;;;;;;;5069798;28;20048;-74
2022/10/16 14:08:23;;;;;;;6.13;2.47;;;;;;;;;;5076063;28;20098;-74
2022/10/16 14:10:53;;;;;;;3.95;1.85;;;;;;;;;;5068186;28;20044;-75
2022/10/16 14:13:39;;;;;;;5.45;2.33;;;;;;;;;;5069073;28;20076;-74
2022/10/16 14:16:11;;;;;;;9.02;4.15;;;;;;;;;;5071077;28;20048;-74
2022/10/16 14:18:39;;;;;;;7.40;2.85;;;;;;;;;;5076276;28;20075;-74
2022/10/16 14:21:13;;;;;;;10.35;2.50;;;;;;;;;;5072183;28;20592;-73
2022/10/16 14:23:40;;;;;;;7.53;2.55;;;;;;;;;;5069393;28;20510;-73
2022/10/16 14:26:13;;;;;;;9.32;2.33;;;;;;;;;;5071672;28;20411;-74
2022/10/16 14:28:40;;;;;;;6.85;2.47;;;;;;;;;;5073792;28;20045;-73
2022/10/16 14:31:25;;;;;;;6.43;2.50;;;;;;;;;;5073201;28;20048;-73
2022/10/16 14:33:53;;;;;;;8.23;3.45;;;;;;;;;;5073369;28;20159;-73
2022/10/16 14:36:21;;;;;;;5.80;2.75;;;;;;;;;;5074179;28;20116;-73
2022/10/16 14:38:58;;;;;;;6.72;3.03;;;;;;;;;;5066152;28;20054;-71
2022/10/16 14:41:25;;;;;;;6.22;2.95;;;;;;;;;;5075778;28;20048;-71
2022/10/16 14:43:53;;;;;;;5.90;2.58;;;;;;;;;;5077484;28;20055;-72